createdAt,value
2019-06-07T00:00:03.403Z,100.00
2019-06-07T00:02:29.045Z,100.00
2019-06-07T00:04:55.376Z,100.00
2019-06-07T00:07:22.014Z,100.00
2019-06-07T00:09:48.030Z,100.00
2019-06-07T00:12:16.788Z,100.00
2019-06-07T00:14:40.654Z,100.00
2019-06-07T00:17:07.841Z,100.00
2019-06-07T00:19:33.282Z,100.00
2019-06-07T00:22:17.609Z,100.00
2019-06-07T00:24:25.927Z,100.00
2019-06-07T00:26:58.979Z,100.00
2019-06-07T00:29:19.582Z,100.00
2019-06-07T00:31:44.905Z,100.00
2019-06-07T00:34:12.002Z,100.00
2019-06-07T00:36:37.518Z,100.00
2019-06-07T00:39:03.851Z,100.00
2019-06-07T00:41:30.159Z,100.00
2019-06-07T00:43:56.494Z,100.00
2019-06-07T00:46:25.257Z,100.00
2019-06-07T00:48:49.129Z,100.00
2019-06-07T00:51:17.178Z,100.00
2019-06-07T00:53:41.763Z,100.00
2019-06-07T00:56:08.101Z,100.00
2019-06-07T00:58:34.393Z,100.00
2019-06-07T01:01:00.725Z,100.00
2019-06-07T01:03:27.041Z,100.00
2019-06-07T01:05:53.346Z,100.00
2019-06-07T01:08:22.745Z,100.00
2019-06-07T01:10:53.370Z,100.00
2019-06-07T01:13:14.981Z,100.00
2019-06-07T01:15:38.649Z,100.00
2019-06-07T01:18:36.131Z,100.00
2019-06-07T01:20:31.291Z,100.00
2019-06-07T01:22:57.620Z,100.00
2019-06-07T01:25:26.091Z,100.00
2019-06-07T01:27:50.243Z,100.00
2019-06-07T01:30:18.603Z,100.00
2019-06-07T01:32:42.886Z,100.00
2019-06-07T01:35:09.200Z,100.00
2019-06-07T01:37:35.532Z,100.00
2019-06-07T01:40:01.856Z,100.00
2019-06-07T01:42:29.421Z,100.00
2019-06-07T01:44:54.551Z,100.00
2019-06-07T01:47:24.778Z,100.00
2019-06-07T01:49:47.122Z,100.00
2019-06-07T01:52:13.459Z,100.00
2019-06-07T01:54:56.342Z,100.00
2019-06-07T01:57:06.099Z,100.00
2019-06-07T01:59:32.511Z,100.00
2019-06-07T02:01:58.752Z,100.00
2019-06-07T02:04:28.992Z,100.00
2019-06-07T02:06:51.392Z,100.00
2019-06-07T02:09:18.453Z,100.00
2019-06-07T02:11:44.038Z,100.00
2019-06-07T02:14:10.342Z,100.00
2019-06-07T02:16:36.677Z,100.00
2019-06-07T02:19:03.932Z,100.00
2019-06-07T02:21:33.400Z,100.00
2019-06-07T02:23:55.650Z,100.00
2019-06-07T02:26:22.967Z,100.00
2019-06-07T02:28:48.293Z,100.00
2019-06-07T02:31:14.609Z,100.00
2019-06-07T02:33:40.923Z,100.00
2019-06-07T02:36:07.272Z,100.00
2019-06-07T02:38:37.382Z,100.00
2019-06-07T02:40:59.920Z,100.00
2019-06-07T02:43:28.215Z,100.00
2019-06-07T02:45:52.557Z,100.00
2019-06-07T02:48:18.895Z,100.00
2019-06-07T02:50:45.195Z,100.00
2019-06-07T02:53:11.519Z,100.00
2019-06-07T02:56:33.300Z,100.00
2019-06-07T02:58:04.178Z,100.00
2019-06-07T03:01:05.654Z,100.00
2019-06-07T03:02:56.792Z,100.00
2019-06-07T03:05:23.100Z,100.00
2019-06-07T03:07:49.429Z,100.00
2019-06-07T03:10:15.744Z,100.00
2019-06-07T03:12:42.055Z,100.00
2019-06-07T03:15:08.381Z,100.00
2019-06-07T03:17:37.565Z,100.00
2019-06-07T03:20:01.023Z,100.00
2019-06-07T03:22:29.150Z,100.00
2019-06-07T03:24:53.654Z,100.00
2019-06-07T03:27:44.151Z,100.00
2019-06-07T03:29:46.303Z,100.00
2019-06-07T03:32:12.628Z,100.00
2019-06-07T03:34:43.320Z,100.00
2019-06-07T03:37:05.271Z,100.00
2019-06-07T03:39:33.473Z,100.00
2019-06-07T03:42:06.185Z,100.00
2019-06-07T03:44:24.217Z,100.00
2019-06-07T03:46:50.526Z,100.00
2019-06-07T03:49:16.853Z,100.00
2019-06-07T03:51:43.219Z,100.00
2019-06-07T03:54:09.511Z,100.00
2019-06-07T03:56:37.888Z,100.00
2019-06-07T03:59:02.158Z,100.00
2019-06-07T04:01:29.987Z,100.00
2019-06-07T04:03:54.828Z,100.00
2019-06-07T04:06:21.180Z,100.00
2019-06-07T04:08:47.439Z,100.00
2019-06-07T04:11:13.753Z,100.00
2019-06-07T04:13:42.968Z,100.00
2019-06-07T04:16:06.394Z,100.00
2019-06-07T04:18:33.042Z,100.00
2019-06-07T04:20:59.075Z,100.00
2019-06-07T04:23:28.192Z,100.00
2019-06-07T04:25:51.755Z,100.00
2019-06-07T04:28:18.070Z,100.00
2019-06-07T04:30:44.432Z,100.00
2019-06-07T04:33:10.711Z,100.00
2019-06-07T04:35:39.156Z,100.00
2019-06-07T04:38:03.339Z,100.00
2019-06-07T04:40:30.711Z,100.00
2019-06-07T04:42:56.042Z,100.00
2019-06-07T04:45:33.892Z,100.00
2019-06-07T04:47:48.639Z,100.00
2019-06-07T04:50:14.991Z,100.00
2019-06-07T04:52:44.830Z,100.00
2019-06-07T04:55:07.706Z,100.00
2019-06-07T04:57:35.370Z,100.00
2019-06-07T05:00:12.642Z,100.00
2019-06-07T05:02:26.653Z,100.00
2019-06-07T05:04:52.957Z,100.00
2019-06-07T05:07:19.288Z,100.00
2019-06-07T05:09:45.640Z,100.00
2019-06-07T05:12:11.964Z,100.00
2019-06-07T05:14:39.977Z,100.00
2019-06-07T05:17:04.607Z,100.00
2019-06-07T05:19:34.667Z,100.00
2019-06-07T05:22:04.405Z,100.00
2019-06-07T05:24:23.582Z,100.00
2019-06-07T05:26:49.914Z,100.00
2019-06-07T05:29:16.272Z,100.00
2019-06-07T05:31:45.499Z,100.00
2019-06-07T05:34:08.872Z,100.00
2019-06-07T05:36:38.625Z,100.00
2019-06-07T05:39:01.510Z,100.00
2019-06-07T05:41:27.835Z,100.00
2019-06-07T05:44:11.704Z,100.00
2019-06-07T05:46:20.505Z,100.00
2019-06-07T05:48:46.827Z,100.00
2019-06-07T05:51:13.134Z,100.00
2019-06-07T05:53:40.831Z,100.00
2019-06-07T05:56:05.817Z,100.00
2019-06-07T05:58:32.803Z,100.00
2019-06-07T06:01:41.756Z,100.00
2019-06-07T06:03:27.590Z,100.00
2019-06-07T06:05:55.600Z,100.00
2019-06-07T06:08:20.221Z,100.00
2019-06-07T06:10:48.641Z,96.98
2019-06-07T06:13:12.848Z,96.65
2019-06-07T06:15:46.377Z,97.64
2019-06-07T06:18:05.708Z,97.63
2019-06-07T06:20:34.371Z,95.12
2019-06-07T06:22:58.352Z,95.66
2019-06-07T06:25:33.982Z,94.74
2019-06-07T06:28:12.063Z,95.18
2019-06-07T06:30:17.471Z,96.15
2019-06-07T06:32:52.982Z,91.97
2019-06-07T06:35:10.131Z,92.46
2019-06-07T06:37:41.344Z,94.48
2019-06-07T06:40:02.867Z,92.79
2019-06-07T06:42:29.177Z,91.32
2019-06-07T06:44:55.552Z,90.20
2019-06-07T06:47:21.870Z,87.99
2019-06-07T06:49:49.979Z,88.15
2019-06-07T06:52:14.561Z,88.65
2019-06-07T06:54:46.593Z,90.37
2019-06-07T06:57:18.987Z,89.87
2019-06-07T06:59:39.168Z,87.51
2019-06-07T07:01:59.875Z,87.89
2019-06-07T07:04:26.201Z,87.35
2019-06-07T07:06:53.669Z,87.04
2019-06-07T07:09:18.836Z,87.46
2019-06-07T07:12:01.369Z,87.32
2019-06-07T07:14:11.510Z,86.57
2019-06-07T07:16:37.814Z,84.89
2019-06-07T07:19:04.165Z,83.33
2019-06-07T07:21:30.446Z,84.38
2019-06-07T07:24:19.601Z,83.56
2019-06-07T07:26:23.152Z,80.88
2019-06-07T07:28:53.969Z,79.34
2019-06-07T07:31:15.789Z,78.53
2019-06-07T07:34:23.902Z,80.50
2019-06-07T07:36:23.265Z,80.70
2019-06-07T07:38:34.776Z,79.64
2019-06-07T07:41:14.118Z,79.45
2019-06-07T07:43:27.421Z,78.64
2019-06-07T07:45:59.174Z,76.76
2019-06-07T07:48:20.062Z,76.19
2019-06-07T07:50:49.737Z,77.56
2019-06-07T07:53:12.701Z,76.67
2019-06-07T07:55:39.031Z,75.57
2019-06-07T07:58:05.350Z,74.63
2019-06-07T08:03:01.590Z,73.87
2019-06-07T08:05:39.992Z,72.55
2019-06-07T08:07:53.966Z,71.47
2019-06-07T08:10:17.024Z,70.63
2019-06-07T08:13:00.521Z,69.12
2019-06-07T08:15:09.688Z,68.43
2019-06-07T08:17:36.022Z,68.75
2019-06-07T08:20:02.984Z,68.29
2019-06-07T08:22:28.664Z,67.36
2019-06-07T08:24:55.959Z,66.82
2019-06-07T08:27:26.503Z,65.70
2019-06-07T08:30:03.840Z,65.29
2019-06-07T08:32:14.006Z,64.39
2019-06-07T08:34:40.337Z,64.24
2019-06-07T08:37:06.650Z,63.99
2019-06-07T08:39:32.979Z,63.33
2019-06-07T08:42:13.836Z,63.03
2019-06-07T08:44:25.844Z,62.67
2019-06-07T08:46:56.570Z,63.12
2019-06-07T08:49:18.267Z,62.86
2019-06-07T08:51:44.612Z,61.71
2019-06-07T08:54:22.272Z,61.90
2019-06-07T08:56:37.245Z,64.06
2019-06-07T08:59:11.143Z,64.52
2019-06-07T09:01:29.885Z,62.65
2019-06-07T09:04:02.803Z,63.11
2019-06-07T09:08:48.837Z,62.62
2019-06-07T09:11:15.172Z,62.46
2019-06-07T09:13:41.488Z,61.26
2019-06-07T09:16:09.000Z,60.31
2019-06-07T09:18:43.051Z,60.76
2019-06-07T09:21:06.077Z,60.24
2019-06-07T09:23:26.823Z,59.75
2019-06-07T09:26:02.634Z,59.80
2019-06-07T09:28:20.658Z,58.48
2019-06-07T09:30:45.765Z,57.90
2019-06-07T09:33:12.077Z,57.53
2019-06-07T09:35:38.418Z,56.46
2019-06-07T09:38:18.154Z,55.61
2019-06-07T09:40:31.079Z,55.08
2019-06-07T09:43:46.713Z,55.28
2019-06-07T09:45:23.717Z,55.43
2019-06-07T09:47:50.037Z,53.89
2019-06-07T09:50:16.350Z,53.18
2019-06-07T09:52:57.675Z,53.07
2019-06-07T09:55:22.958Z,52.58
2019-06-07T09:57:35.359Z,50.19
2019-06-07T10:00:21.342Z,50.90
2019-06-07T10:02:28.014Z,51.24
2019-06-07T10:04:54.372Z,51.39
2019-06-07T10:07:31.262Z,51.55
2019-06-07T10:12:13.392Z,50.13
2019-06-07T10:14:39.694Z,50.38
2019-06-07T10:17:07.246Z,50.68
2019-06-07T10:19:32.345Z,51.02
2019-06-07T10:21:59.159Z,50.71
2019-06-07T10:24:25.023Z,49.84
2019-06-07T10:26:51.387Z,50.11
2019-06-07T10:29:17.723Z,50.70
2019-06-07T23:14:42.501Z,81.09
2019-06-07T23:17:09.462Z,81.41
2019-06-07T23:19:35.082Z,81.88
2019-06-07T23:22:01.413Z,82.27
2019-06-07T23:24:27.739Z,82.04
2019-06-07T23:26:54.052Z,82.18
2019-06-07T23:29:20.730Z,82.19
2019-06-07T23:31:46.731Z,82.17
2019-06-07T23:34:13.063Z,82.50
2019-06-07T23:36:39.362Z,82.75
2019-06-07T23:39:05.722Z,83.34
2019-06-07T23:41:32.035Z,83.69
2019-06-07T23:43:58.333Z,84.12
2019-06-07T23:46:24.665Z,84.59
2019-06-07T23:48:50.963Z,84.69
2019-06-07T23:51:17.707Z,84.62
2019-06-07T23:53:43.612Z,84.32
2019-06-07T23:56:09.939Z,84.54
2019-06-07T23:58:36.241Z,84.83
